Latest Coastal Weather Observations for King Island Airport

IDV60701

Issued at 11:51 pm EST Wednesday 23 August 2017 (issued every 10 minutes, with the page automatically refreshed every 10 minutes)

About coastal observations | Map of coastal stations | Coastal observations for VIC | Marine services | Other Formats
Station Details ID: 098017 Name: KING ISLAND AIRPORT Lat: -39.88 Lon: 143.88 Height: 37.0 m
Data from the previous 72 hours. | See also: Recent months at King Island Airport
Date/Time
EST
Temp
°C
Wind Pressure Rain since
9am
mm
Weather Cloud Vis
km
Sea
Height
m
Swell
Dir  Spd
kts
Gust
kts
hPa Trend Height
m
Period
s
Dir
23/11:30pm 9.0 WSW 8 10 1019.5 - 3.2 - Partly cloudy 10 - - - -
23/11:00pm 9.1 WSW 10 14 1019.6 - 3.2 - Partly cloudy 10 - - - -
23/10:30pm 9.8 WSW 9 14 1019.5 - 3.2 - Partly cloudy 10 - - - -
23/10:00pm 9.5 WSW 10 16 1019.5 - 3.2 - Partly cloudy 10 - - - -
23/09:30pm 9.2 WSW 9 11 1019.3 - 3.2 - Partly cloudy 10 - - - -
23/09:00pm 9.5 WSW 11 16 1019.1 - 3.2 Recent precip. Mostly clear 10 - - - -
23/08:30pm 9.4 SW 11 17 1018.8 - 3.2 - Partly cloudy 10 - - - -
23/08:00pm 9.6 SW 8 11 1018.6 - 3.0 - Partly cloudy 10 - - - -
23/07:30pm 9.9 SW 11 16 1018.3 - 2.8 - Partly cloudy 10 - - - -
23/07:00pm 9.9 SW 11 14 1018.0 - 2.8 - Partly cloudy 10 - - - -
23/06:30pm 9.9 SW 13 17 1017.6 - 2.8 - Partly cloudy 10 - - - -
23/06:00pm 9.7 SW 12 16 1017.2 - 2.8 Rain Partly cloudy 10 - - - -
23/05:30pm 10.1 SW 11 16 1016.8 - 2.8 - Partly cloudy 10 - - - -
23/05:00pm 11.1 WSW 13 17 1016.4 - 2.6 - Partly cloudy 10 - - - -
23/04:30pm 9.9 W 14 21 1016.2 - 2.2 - Partly cloudy 10 - - - -
23/04:00pm 11.3 SSW 12 18 1015.5 - 2.2 - Partly cloudy 10 - - - -
23/03:30pm 11.1 SW 10 15 1015.5 - 2.2 - Partly cloudy 10 - - - -
23/03:00pm 11.3 SW 11 15 1015.3 - 2.2 - Cloudy 10 - - - -
23/02:30pm 11.3 SW 13 18 1015.1 - 2.2 - Partly cloudy 10 - - - -
23/02:00pm 11.6 SW 14 19 1014.9 - 2.2 - Partly cloudy 10 - - - -
23/01:30pm 11.9 SW 16 21 1014.7 - 2.2 - Partly cloudy 10 - - - -
23/01:00pm 12.2 SW 13 18 1014.3 - 2.2 - Partly cloudy 10 - - - -
23/12:30pm 11.6 SW 11 15 1014.3 - 2.2 - Partly cloudy 10 - - - -
23/12:15pm 11.8 WSW 15 26 1014.5 - 2.2 - Partly cloudy 10 - - - -
23/12:00pm 12.3 WSW 12 17 1014.7 - 2.2 - Cloudy 10 - - - -
23/11:30am 11.9 WSW 12 17 1014.6 - 2.2 - Partly cloudy 10 - - - -
23/11:00am 12.6 WSW 12 18 1014.3 - 2.2 - Partly cloudy 10 - - - -
23/10:42am 11.8 WNW 10 15 1014.2 - 2.2 - Partly cloudy 10 - - - -
23/10:30am 11.2 WNW 12 16 1014.1 - 2.0 - Partly cloudy 5 - - - -
23/10:06am 11.9 WNW 16 20 1014.2 - 0.4 - Partly cloudy 5 - - - -
23/10:00am 12.4 NW 16 20 1014.1 - 0.0 - Partly cloudy 10 - - - -
23/09:30am 12.3 NW 19 23 1014.2 - 0.0 - Cloudy 10 - - - -
23/09:00am 12.0 NW 17 21 1014.3 - 13.0 Rain Cloudy 10 - - - -
23/08:30am 11.1 NW 13 17 1014.1 - 13.0 - Partly cloudy 10 - - - -
23/08:00am 10.9 WNW 13 19 1014.2 - 12.6 - Partly cloudy 9 - - - -
23/07:30am 11.1 W 10 14 1014.1 - 11.8 - Partly cloudy 9 - - - -
23/07:23am 10.8 W 11 17 1014.0 - 11.6 - Partly cloudy 10 - - - -
23/07:00am 11.7 NW 19 25 1013.9 - 11.2 - Partly cloudy 10 - - - -
23/06:30am 11.1 WNW 11 16 1013.7 - 11.2 - Partly cloudy 10 - - - -
23/06:14am 11.1 WNW 12 17 1014.0 - 11.2 - Partly cloudy 7 - - - -
23/06:00am 10.8 W 18 24 1014.3 - 10.8 Rain Cloudy 4 - - - -
23/05:56am 10.9 W 18 24 1014.3 - 10.6 - Partly cloudy 5 - - - -
23/05:30am 12.0 WNW 19 27 1014.0 - 9.6 - Partly cloudy 10 - - - -
23/05:18am 12.2 WNW 17 28 1013.9 - 9.6 - Partly cloudy 10 - - - -
23/05:00am 11.7 WNW 17 24 1014.1 - 9.6 - Partly cloudy 10 - - - -
23/04:30am 11.5 WNW 15 19 1014.2 - 9.6 - Partly cloudy 10 - - - -
23/04:00am 11.7 W 14 19 1014.4 - 9.6 - Partly cloudy 10 - - - -
23/03:55am 11.5 W 10 19 1014.3 - 9.6 - Partly cloudy 10 - - - -
23/03:40am 11.2 WNW 9 13 1014.4 - 9.6 - Partly cloudy 10 - - - -
23/03:36am 11.2 W 11 16 1014.4 - 9.6 - Partly cloudy 10 - - - -
23/03:30am 11.1 W 14 21 1014.5 - 9.6 - Partly cloudy 7 - - - -
23/03:23am 11.1 WNW 23 31 1014.7 - 9.4 - Partly cloudy 4 - - - -
23/03:18am 11.2 NW 23 31 1014.8 - 9.0 - Partly cloudy 5 - - - -
23/03:13am 11.6 NW 19 29 1014.6 - 8.8 - Partly cloudy 10 - - - -
23/03:00am 12.2 WNW 15 18 1014.7 - 8.8 Rain Cloudy 10 - - - -
23/02:30am 11.6 WNW 15 20 1014.9 - 8.8 - Partly cloudy 9 - - - -
23/02:24am 11.4 WNW 16 21 1015.1 - 8.6 - Partly cloudy 8 - - - -
23/02:10am 11.7 W 16 25 1015.2 - 8.0 - Partly cloudy 5 - - - -
23/02:00am 11.8 WNW 9 16 1015.1 - 7.2 - Partly cloudy 10 - - - -
23/01:52am 11.4 W 14 19 1015.2 - 7.2 - Partly cloudy 10 - - - -
23/01:37am 10.8 W 13 24 1015.3 - 6.8 - Partly cloudy 5 - - - -
23/01:30am 11.8 W 11 14 1015.3 - 5.8 - Partly cloudy 10 - - - -
23/01:13am 11.2 WNW 14 18 1015.4 - 5.8 - Partly cloudy 8 - - - -
23/01:00am 11.0 WNW 17 26 1015.4 - 5.4 - Partly cloudy 4 - - - -
23/12:56am 10.9 WNW 15 26 1015.5 - 5.4 - Partly cloudy 5 - - - -
23/12:39am 11.7 WNW 15 20 1015.5 - 1.8 - Partly cloudy 5 - - - -
23/12:30am 11.9 WNW 18 24 1015.5 - 0.8 - Partly cloudy 10 - - - -
23/12:00am 11.9 NW 15 19 1015.4 - 0.8 - Mostly cloudy 10 - - - -
 
Date/Time
EST
Temp
°C
Wind Pressure Rain since
9am
mm
Weather Cloud Vis
km
Sea
Height
m
Swell
Dir  Spd
kts
Gust
kts
hPa Trend Height
m
Period
s
Dir
22/11:30pm 12.8 WNW 18 23 1015.6 - 0.8 - Partly cloudy 10 - - - -
22/11:00pm 12.7 WNW 17 23 1015.8 - 0.8 - Partly cloudy 10 - - - -
22/10:30pm 12.7 WNW 20 25 1016.0 - 0.8 - Partly cloudy 10 - - - -
22/10:00pm 12.6 WNW 21 28 1016.1 - 0.8 - Partly cloudy 10 - - - -
22/09:30pm 12.6 WNW 22 28 1016.2 - 0.8 - Partly cloudy 10 - - - -
22/09:00pm 12.9 NW 20 28 1016.2 - 0.8 Rain Mostly cloudy 10 - - - -
22/08:30pm 12.4 WNW 20 28 1016.3 - 0.8 - Partly cloudy 10 - - - -
22/08:19pm 12.3 WNW 22 32 1016.4 - 0.6 - Partly cloudy 7 - - - -
22/08:00pm 12.7 NW 20 27 1016.1 - 0.4 - Partly cloudy 10 - - - -
22/07:30pm 12.5 WNW 20 26 1016.1 - 0.4 - Partly cloudy 10 - - - -
22/07:00pm 12.6 WNW 18 22 1016.1 - 0.4 - Partly cloudy 10 - - - -
22/06:30pm 12.3 WNW 17 24 1016.0 - 0.4 - Partly cloudy 10 - - - -
22/06:00pm 12.3 NW 19 23 1016.0 - 0.4 - Cloudy 10 - - - -
22/05:30pm 12.2 WNW 19 22 1015.9 - 0.4 - Partly cloudy 10 - - - -
22/05:00pm 12.5 NW 18 22 1015.8 - 0.4 - Partly cloudy 10 - - - -
22/04:30pm 12.9 WNW 15 24 1015.7 - 0.4 - Partly cloudy 10 - - - -
22/04:00pm 13.6 WNW 20 27 1015.5 - 0.4 - Partly cloudy 10 - - - -
22/03:30pm 13.7 WNW 19 26 1015.5 - 0.4 - Partly cloudy 10 - - - -
22/03:00pm 14.0 WNW 21 26 1015.3 - 0.4 - Mostly cloudy 10 - - - -
22/02:30pm 13.7 NW 11 17 1015.4 - 0.4 - Partly cloudy 10 - - - -
22/02:00pm 13.0 NW 18 24 1015.8 - 0.4 - Partly cloudy 10 - - - -
22/01:30pm 13.5 WNW 18 22 1015.9 - 0.4 - Partly cloudy 10 - - - -
22/01:00pm 13.9 NW 14 17 1016.1 - 0.4 - Partly cloudy 9 - - - -
22/12:30pm 13.7 NW 15 18 1016.2 - 0.2 - Partly cloudy 10 - - - -
22/12:00pm 13.2 WNW 15 20 1016.6 - 0.2 Recent precip. Mostly cloudy 10 - - - -
22/11:30am 13.7 WNW 15 19 1016.7 - 0.0 - Partly cloudy 10 - - - -
22/11:00am 13.9 W 15 20 1016.8 - 0.0 - Partly cloudy 10 - - - -
22/10:30am 12.6 W 16 20 1016.7 - 0.0 - Partly cloudy 10 - - - -
22/10:00am 11.8 W 13 18 1016.6 - 0.0 - Partly cloudy 10 - - - -
22/09:56am 11.7 W 12 18 1016.6 - 0.0 - Partly cloudy 10 - - - -
22/09:30am 11.5 W 17 23 1016.5 - 0.0 - Partly cloudy 10 - - - -
22/09:22am 11.6 W 17 22 1016.4 - 0.0 - Partly cloudy 10 - - - -
22/09:18am 11.7 W 16 22 1016.3 - 0.0 - Partly cloudy 10 - - - -
22/09:06am 12.0 WNW 15 19 1016.2 - 0.0 - Partly cloudy 5 - - - -
22/09:00am 12.2 NW 16 19 1016.2 - 0.4 Drizzle Cloudy 9 - - - -
22/08:30am 12.8 NW 14 16 1015.9 - 0.2 - Partly cloudy 10 - - - -
22/08:00am 12.4 NW 13 17 1015.8 - 0.2 - Partly cloudy 10 - - - -
22/07:30am 12.0 NW 10 13 1015.7 - 0.2 - Cloudy 10 - - - -
22/07:00am 11.6 NW 12 15 1015.2 - 0.2 - Cloudy 10 - - - -
22/06:30am 11.8 WNW 13 16 1015.3 - 0.2 - Cloudy 10 - - - -
22/06:00am 11.6 WNW 13 16 1015.2 - 0.2 - Cloudy 10 - - - -
22/05:30am 11.4 WNW 11 16 1015.1 - 0.2 - Cloudy 10 - - - -
22/05:00am 11.2 WNW 10 13 1015.1 - 0.2 - Cloudy 10 - - - -
22/04:30am 10.9 WNW 10 14 1015.0 - 0.2 - Partly cloudy 10 - - - -
22/04:00am 10.3 WNW 10 14 1014.8 - 0.2 - Partly cloudy 10 - - - -
22/03:30am 10.4 WNW 11 15 1014.7 - 0.2 - Partly cloudy 10 - - - -
22/03:00am 10.8 WNW 11 15 1014.9 - 0.2 - Cloudy 10 - - - -
22/02:30am 9.9 NNW 4 5 1015.0 - 0.2 - Partly cloudy 10 - - - -
22/02:00am 9.9 NNW 7 9 1015.1 - 0.2 - Partly cloudy 10 - - - -
22/01:30am 8.1 NNE 4 6 1015.4 - 0.2 - Partly cloudy 10 - - - -
22/01:00am 7.9 ENE 3 5 1015.5 - 0.2 - Partly cloudy 10 - - - -
22/12:30am 8.1 NE 4 4 1015.5 - 0.2 - Partly cloudy 10 - - - -
22/12:00am 7.4 NE 3 4 1015.7 - 0.2 - Cloudy 10 - - - -
 
Date/Time
EST
Temp
°C
Wind Pressure Rain since
9am
mm
Weather Cloud Vis
km
Sea
Height
m
Swell
Dir  Spd
kts
Gust
kts
hPa Trend Height
m
Period
s
Dir
21/11:30pm 7.1 E 3 4 1015.6 - 0.2 - Partly cloudy 10 - - - -
21/11:00pm 6.7 ENE 4 4 1015.7 - 0.2 - Partly cloudy 10 - - - -
21/10:30pm 6.2 E 3 4 1015.8 - 0.2 - Partly cloudy 10 - - - -
21/10:00pm 6.3 E 3 4 1015.9 - 0.2 - Cloudy 10 - - - -
21/09:30pm 5.8 E 4 4 1015.8 - 0.2 - Partly cloudy 10 - - - -
21/09:00pm 5.5 CALM 0 0 1015.6 - 0.2 - Partly cloudy 10 - - - -
21/08:30pm 5.6 CALM 0 0 1015.4 - 0.2 - Partly cloudy 10 - - - -
21/08:00pm 5.7 ENE 4 4 1015.3 - 0.2 - Partly cloudy 10 - - - -
21/07:30pm 5.8 CALM 0 0 1015.2 - 0.2 - - 10 - - - -
21/07:00pm 6.4 NE 3 5 1014.8 - 0.2 - - 10 - - - -
21/06:30pm 7.4 ENE 3 4 1014.4 - 0.2 - - 10 - - - -
21/06:00pm 8.6 N 5 6 1014.2 - 0.2 - - 10 - - - -
21/05:30pm 9.9 NNE 6 7 1013.8 - 0.2 - Partly cloudy 10 - - - -
21/05:00pm 10.1 N 5 6 1013.8 - 0.2 - Partly cloudy 10 - - - -
21/04:30pm 10.4 NNE 6 8 1013.5 - 0.2 - - 10 - - - -
21/04:00pm 10.5 NNE 8 10 1013.4 - 0.2 - Partly cloudy 10 - - - -
21/03:30pm 10.2 N 9 12 1013.5 - 0.2 - Partly cloudy 10 - - - -
21/03:00pm 10.3 NNE 11 14 1013.4 - 0.2 - Mostly cloudy 10 - - - -
21/02:30pm 10.5 N 10 14 1013.4 - 0.2 - Partly cloudy 10 - - - -
21/02:00pm 10.3 N 12 16 1013.6 - 0.2 - Partly cloudy 10 - - - -
21/01:30pm 10.1 N 12 15 1013.7 - 0.2 - Partly cloudy 10 - - - -
21/01:00pm 12.0 N 16 19 1014.0 - 0.0 - Partly cloudy 10 - - - -
21/12:30pm 10.5 N 14 18 1014.2 - 0.0 - Partly cloudy 10 - - - -
21/12:00pm 10.5 N 12 16 1014.6 - 0.0 - Cloudy 10 - - - -
21/11:30am 10.8 NNW 9 11 1014.9 - 0.0 - Partly cloudy 10 - - - -
21/11:00am 10.8 NNW 9 11 1015.0 - 0.0 - Partly cloudy 10 - - - -
21/10:30am 9.4 N 8 11 1015.2 - 0.0 - Partly cloudy 10 - - - -
21/10:00am 9.0 NNE 5 8 1015.3 - 0.0 - Partly cloudy 10 - - - -
21/09:30am 8.9 ENE 5 7 1015.5 - 0.0 - Partly cloudy 10 - - - -
21/09:00am 8.8 NE 6 7 1015.6 - 2.2 Showers Cloudy 10 - - - -
21/08:30am 8.6 ENE 6 7 1015.4 - 2.2 - Partly cloudy 10 - - - -
21/08:00am 8.2 NNE 7 9 1015.4 - 2.2 - Partly cloudy 10 - - - -
21/07:30am 7.6 NE 6 7 1015.2 - 2.2 - Partly cloudy 10 - - - -
21/07:00am 7.5 NE 5 7 1015.0 - 2.2 - Partly cloudy 10 - - - -
21/06:30am 7.4 NE 5 6 1014.9 - 2.2 - Partly cloudy 10 - - - -
21/06:00am 7.1 ENE 6 7 1014.8 - 2.2 - Cloudy 10 - - - -
21/05:30am 6.5 ENE 4 5 1014.7 - 2.2 - Partly cloudy 10 - - - -
21/05:00am 6.4 ENE 5 6 1014.9 - 2.2 - Cloudy 10 - - - -
21/04:30am 6.3 ENE 5 5 1015.0 - 2.2 - Cloudy 10 - - - -
21/04:00am 6.1 ENE 5 6 1015.3 - 2.2 - Partly cloudy 10 - - - -
21/03:30am 5.6 ENE 5 6 1015.7 - 2.2 - - 10 - - - -
21/03:00am 5.2 ENE 5 6 1016.1 - 2.2 - Cloudy 10 - - - -
21/02:30am 5.0 ENE 5 5 1016.6 - 2.2 - Partly cloudy 10 - - - -
21/02:00am 5.1 E 5 6 1016.7 - 2.2 - - 10 - - - -
21/01:30am 5.4 E 5 6 1017.1 - 2.2 - - 10 - - - -
21/01:00am 5.1 E 5 5 1017.6 - 2.2 - - 10 - - - -
21/12:30am 5.3 E 5 5 1018.0 - 2.2 - - 10 - - - -
21/12:00am 5.7 E 4 4 1018.2 - 2.2 - Cloudy 10 - - - -

Other Formats:

Comma delimited format used in spreadsheet applications
http://www.bom.gov.au/fwo/IDV60701/IDV60701.94850.axf

JavaScript Object Notation format (JSON) in row-major order
http://www.bom.gov.au/fwo/IDV60701/IDV60701.94850.json